sensor_id;sensor_type;location;lat;lon;timestamp;P1;durP1;ratioP1;P2;durP2;ratioP2
37535;SDS011;23379;51.554;6.736;2022-07-01T00:00:20;16.48;;;13.40;;
37535;SDS011;23379;51.554;6.736;2022-07-01T00:02:45;17.95;;;15.98;;
37535;SDS011;23379;51.554;6.736;2022-07-01T00:05:11;19.40;;;16.58;;
37535;SDS011;23379;51.554;6.736;2022-07-01T00:07:36;22.38;;;17.90;;
37535;SDS011;23379;51.554;6.736;2022-07-01T00:10:02;20.55;;;18.35;;
37535;SDS011;23379;51.554;6.736;2022-07-01T00:12:28;26.73;;;19.35;;
37535;SDS011;23379;51.554;6.736;2022-07-01T00:14:54;27.63;;;20.90;;
37535;SDS011;23379;51.554;6.736;2022-07-01T00:17:19;26.70;;;21.02;;
37535;SDS011;23379;51.554;6.736;2022-07-01T00:19:44;30.63;;;21.80;;
37535;SDS011;23379;51.554;6.736;2022-07-01T00:22:10;32.63;;;22.20;;
37535;SDS011;23379;51.554;6.736;2022-07-01T00:24:35;31.42;;;23.15;;
37535;SDS011;23379;51.554;6.736;2022-07-01T00:27:01;34.97;;;24.50;;
37535;SDS011;23379;51.554;6.736;2022-07-01T00:29:26;34.53;;;26.00;;
37535;SDS011;23379;51.554;6.736;2022-07-01T00:31:51;35.50;;;27.02;;
37535;SDS011;23379;51.554;6.736;2022-07-01T00:34:17;37.80;;;28.23;;
37535;SDS011;23379;51.554;6.736;2022-07-01T00:36:42;33.05;;;28.02;;
37535;SDS011;23379;51.554;6.736;2022-07-01T00:39:07;41.53;;;30.83;;
37535;SDS011;23379;51.554;6.736;2022-07-01T00:41:33;38.33;;;29.98;;
37535;SDS011;23379;51.554;6.736;2022-07-01T00:43:58;37.90;;;30.10;;
37535;SDS011;23379;51.554;6.736;2022-07-01T00:46:24;35.65;;;29.30;;
37535;SDS011;23379;51.554;6.736;2022-07-01T00:48:54;37.22;;;30.48;;
37535;SDS011;23379;51.554;6.736;2022-07-01T00:51:23;37.92;;;31.17;;
37535;SDS011;23379;51.554;6.736;2022-07-01T00:53:48;39.63;;;31.58;;
37535;SDS011;23379;51.554;6.736;2022-07-01T00:56:14;37.58;;;31.17;;
37535;SDS011;23379;51.554;6.736;2022-07-01T00:58:40;37.92;;;30.92;;
37535;SDS011;23379;51.554;6.736;2022-07-01T01:01:05;41.60;;;30.77;;
37535;SDS011;23379;51.554;6.736;2022-07-01T01:03:31;39.10;;;30.60;;
37535;SDS011;23379;51.554;6.736;2022-07-01T01:05:56;39.80;;;31.38;;
37535;SDS011;23379;51.554;6.736;2022-07-01T01:08:22;40.10;;;34.25;;
37535;SDS011;23379;51.554;6.736;2022-07-01T01:10:47;45.38;;;35.95;;
37535;SDS011;23379;51.554;6.736;2022-07-01T01:13:13;41.03;;;34.70;;
37535;SDS011;23379;51.554;6.736;2022-07-01T01:15:38;45.20;;;35.22;;
37535;SDS011;23379;51.554;6.736;2022-07-01T01:18:04;41.13;;;34.72;;
37535;SDS011;23379;51.554;6.736;2022-07-01T01:20:36;41.83;;;31.70;;
37535;SDS011;23379;51.554;6.736;2022-07-01T01:23:02;37.67;;;30.65;;
37535;SDS011;23379;51.554;6.736;2022-07-01T01:25:30;37.03;;;30.33;;
37535;SDS011;23379;51.554;6.736;2022-07-01T01:27:56;40.55;;;31.70;;
37535;SDS011;23379;51.554;6.736;2022-07-01T01:30:22;39.22;;;31.52;;
37535;SDS011;23379;51.554;6.736;2022-07-01T01:32:47;35.00;;;29.05;;
37535;SDS011;23379;51.554;6.736;2022-07-01T01:35:14;39.42;;;28.25;;
37535;SDS011;23379;51.554;6.736;2022-07-01T01:37:40;36.58;;;26.40;;
37535;SDS011;23379;51.554;6.736;2022-07-01T01:40:06;31.13;;;26.38;;
37535;SDS011;23379;51.554;6.736;2022-07-01T01:42:32;38.85;;;27.60;;
37535;SDS011;23379;51.554;6.736;2022-07-01T01:44:57;28.15;;;24.42;;
37535;SDS011;23379;51.554;6.736;2022-07-01T01:47:23;31.70;;;23.23;;
37535;SDS011;23379;51.554;6.736;2022-07-01T01:49:49;29.50;;;23.13;;
37535;SDS011;23379;51.554;6.736;2022-07-01T01:52:14;25.73;;;21.27;;
37535;SDS011;23379;51.554;6.736;2022-07-01T01:54:39;27.88;;;21.85;;
37535;SDS011;23379;51.554;6.736;2022-07-01T01:57:05;28.05;;;21.45;;
37535;SDS011;23379;51.554;6.736;2022-07-01T01:59:30;27.35;;;20.80;;
37535;SDS011;23379;51.554;6.736;2022-07-01T02:01:56;27.73;;;20.23;;
37535;SDS011;23379;51.554;6.736;2022-07-01T02:04:21;25.30;;;19.10;;
37535;SDS011;23379;51.554;6.736;2022-07-01T02:06:50;27.98;;;19.30;;
37535;SDS011;23379;51.554;6.736;2022-07-01T02:09:17;27.00;;;18.83;;
37535;SDS011;23379;51.554;6.736;2022-07-01T02:11:42;21.08;;;17.88;;
37535;SDS011;23379;51.554;6.736;2022-07-01T02:14:07;22.83;;;18.00;;
37535;SDS011;23379;51.554;6.736;2022-07-01T02:16:33;24.80;;;18.25;;
37535;SDS011;23379;51.554;6.736;2022-07-01T02:18:58;24.38;;;18.80;;
37535;SDS011;23379;51.554;6.736;2022-07-01T02:21:24;25.65;;;18.70;;
37535;SDS011;23379;51.554;6.736;2022-07-01T02:23:49;24.45;;;18.85;;
37535;SDS011;23379;51.554;6.736;2022-07-01T02:26:17;24.70;;;18.55;;
37535;SDS011;23379;51.554;6.736;2022-07-01T02:28:43;24.35;;;19.27;;
37535;SDS011;23379;51.554;6.736;2022-07-01T02:31:09;23.15;;;18.02;;
37535;SDS011;23379;51.554;6.736;2022-07-01T02:33:34;20.83;;;16.85;;
37535;SDS011;23379;51.554;6.736;2022-07-01T02:35:59;23.88;;;18.85;;
37535;SDS011;23379;51.554;6.736;2022-07-01T02:38:25;26.60;;;18.70;;
37535;SDS011;23379;51.554;6.736;2022-07-01T02:40:50;27.42;;;18.27;;
37535;SDS011;23379;51.554;6.736;2022-07-01T02:43:16;30.00;;;19.38;;
37535;SDS011;23379;51.554;6.736;2022-07-01T02:45:41;25.95;;;18.85;;
37535;SDS011;23379;51.554;6.736;2022-07-01T02:48:07;32.13;;;19.77;;
37535;SDS011;23379;51.554;6.736;2022-07-01T02:50:33;26.85;;;18.02;;
37535;SDS011;23379;51.554;6.736;2022-07-01T02:52:58;31.15;;;18.65;;
37535;SDS011;23379;51.554;6.736;2022-07-01T02:55:24;26.80;;;17.55;;
37535;SDS011;23379;51.554;6.736;2022-07-01T02:57:49;28.50;;;17.95;;
37535;SDS011;23379;51.554;6.736;2022-07-01T03:00:16;25.55;;;16.90;;
37535;SDS011;23379;51.554;6.736;2022-07-01T03:02:42;30.90;;;18.48;;
37535;SDS011;23379;51.554;6.736;2022-07-01T03:05:08;28.90;;;18.77;;
37535;SDS011;23379;51.554;6.736;2022-07-01T03:07:35;29.65;;;19.75;;
37535;SDS011;23379;51.554;6.736;2022-07-01T03:10:03;32.50;;;19.30;;
37535;SDS011;23379;51.554;6.736;2022-07-01T03:12:29;30.80;;;19.70;;
37535;SDS011;23379;51.554;6.736;2022-07-01T03:17:30;27.33;;;18.17;;
37535;SDS011;23379;51.554;6.736;2022-07-01T03:19:57;27.33;;;18.65;;
37535;SDS011;23379;51.554;6.736;2022-07-01T03:22:24;29.40;;;18.90;;
37535;SDS011;23379;51.554;6.736;2022-07-01T03:24:52;27.10;;;18.70;;
37535;SDS011;23379;51.554;6.736;2022-07-01T03:27:18;30.48;;;20.38;;
37535;SDS011;23379;51.554;6.736;2022-07-01T03:29:44;28.67;;;19.08;;
37535;SDS011;23379;51.554;6.736;2022-07-01T03:32:10;31.35;;;19.25;;
37535;SDS011;23379;51.554;6.736;2022-07-01T03:34:40;30.15;;;19.40;;
37535;SDS011;23379;51.554;6.736;2022-07-01T03:37:07;36.35;;;19.30;;
37535;SDS011;23379;51.554;6.736;2022-07-01T03:39:34;27.58;;;17.92;;
37535;SDS011;23379;51.554;6.736;2022-07-01T03:42:01;28.63;;;17.90;;
37535;SDS011;23379;51.554;6.736;2022-07-01T03:44:28;27.52;;;17.23;;
37535;SDS011;23379;51.554;6.736;2022-07-01T03:46:54;24.98;;;17.25;;
37535;SDS011;23379;51.554;6.736;2022-07-01T03:49:19;29.13;;;15.68;;
37535;SDS011;23379;51.554;6.736;2022-07-01T03:51:45;28.90;;;16.45;;
37535;SDS011;23379;51.554;6.736;2022-07-01T03:54:11;25.95;;;15.98;;
37535;SDS011;23379;51.554;6.736;2022-07-01T03:59:34;23.90;;;15.30;;
37535;SDS011;23379;51.554;6.736;2022-07-01T04:02:01;24.27;;;15.48;;
37535;SDS011;23379;51.554;6.736;2022-07-01T04:04:27;20.75;;;14.85;;
37535;SDS011;23379;51.554;6.736;2022-07-01T04:06:53;22.90;;;14.82;;
37535;SDS011;23379;51.554;6.736;2022-07-01T04:09:18;25.08;;;14.75;;
37535;SDS011;23379;51.554;6.736;2022-07-01T04:11:44;21.25;;;13.98;;
37535;SDS011;23379;51.554;6.736;2022-07-01T04:14:11;28.55;;;14.40;;
37535;SDS011;23379;51.554;6.736;2022-07-01T04:16:37;19.95;;;13.18;;
37535;SDS011;23379;51.554;6.736;2022-07-01T04:19:03;20.35;;;14.05;;
37535;SDS011;23379;51.554;6.736;2022-07-01T04:21:29;19.90;;;13.60;;
37535;SDS011;23379;51.554;6.736;2022-07-01T04:24:13;20.77;;;13.68;;
37535;SDS011;23379;51.554;6.736;2022-07-01T04:26:39;17.90;;;12.90;;
37535;SDS011;23379;51.554;6.736;2022-07-01T04:29:05;18.55;;;12.98;;
37535;SDS011;23379;51.554;6.736;2022-07-01T04:31:31;21.13;;;12.43;;
37535;SDS011;23379;51.554;6.736;2022-07-01T04:33:56;21.52;;;13.43;;
37535;SDS011;23379;51.554;6.736;2022-07-01T04:36:21;19.42;;;13.00;;
37535;SDS011;23379;51.554;6.736;2022-07-01T04:38:47;18.58;;;12.13;;
37535;SDS011;23379;51.554;6.736;2022-07-01T04:41:12;19.25;;;12.95;;
37535;SDS011;23379;51.554;6.736;2022-07-01T04:43:56;20.70;;;12.82;;
37535;SDS011;23379;51.554;6.736;2022-07-01T04:46:22;22.52;;;13.82;;
37535;SDS011;23379;51.554;6.736;2022-07-01T04:48:47;25.52;;;14.50;;
37535;SDS011;23379;51.554;6.736;2022-07-01T04:51:13;25.23;;;16.30;;
37535;SDS011;23379;51.554;6.736;2022-07-01T04:53:38;23.90;;;16.40;;
37535;SDS011;23379;51.554;6.736;2022-07-01T04:56:04;27.10;;;17.25;;
37535;SDS011;23379;51.554;6.736;2022-07-01T04:58:29;26.40;;;16.38;;
37535;SDS011;23379;51.554;6.736;2022-07-01T05:00:56;29.77;;;15.20;;
37535;SDS011;23379;51.554;6.736;2022-07-01T05:03:21;25.45;;;16.02;;
37535;SDS011;23379;51.554;6.736;2022-07-01T05:05:46;23.40;;;15.45;;
37535;SDS011;23379;51.554;6.736;2022-07-01T05:08:12;23.00;;;14.25;;
37535;SDS011;23379;51.554;6.736;2022-07-01T05:10:37;20.63;;;13.57;;
37535;SDS011;23379;51.554;6.736;2022-07-01T05:13:03;17.48;;;12.82;;
37535;SDS011;23379;51.554;6.736;2022-07-01T05:15:28;24.35;;;13.32;;
37535;SDS011;23379;51.554;6.736;2022-07-01T05:17:53;16.10;;;12.52;;
37535;SDS011;23379;51.554;6.736;2022-07-01T05:20:38;19.70;;;12.55;;
37535;SDS011;23379;51.554;6.736;2022-07-01T05:23:22;19.00;;;12.63;;
37535;SDS011;23379;51.554;6.736;2022-07-01T05:25:47;19.15;;;12.63;;
37535;SDS011;23379;51.554;6.736;2022-07-01T05:28:12;20.92;;;12.85;;
37535;SDS011;23379;51.554;6.736;2022-07-01T05:30:38;21.92;;;12.70;;
37535;SDS011;23379;51.554;6.736;2022-07-01T05:33:03;18.15;;;12.52;;
37535;SDS011;23379;51.554;6.736;2022-07-01T05:35:29;18.08;;;12.27;;
37535;SDS011;23379;51.554;6.736;2022-07-01T05:37:55;19.58;;;11.27;;
37535;SDS011;23379;51.554;6.736;2022-07-01T05:40:21;19.75;;;11.73;;
37535;SDS011;23379;51.554;6.736;2022-07-01T05:42:46;16.58;;;11.52;;
37535;SDS011;23379;51.554;6.736;2022-07-01T05:45:12;20.55;;;11.82;;
37535;SDS011;23379;51.554;6.736;2022-07-01T05:47:37;22.08;;;11.50;;
37535;SDS011;23379;51.554;6.736;2022-07-01T05:50:02;16.02;;;11.38;;
37535;SDS011;23379;51.554;6.736;2022-07-01T05:52:28;20.58;;;12.48;;
37535;SDS011;23379;51.554;6.736;2022-07-01T05:54:53;18.73;;;11.93;;
37535;SDS011;23379;51.554;6.736;2022-07-01T05:57:19;16.85;;;11.75;;
37535;SDS011;23379;51.554;6.736;2022-07-01T05:59:44;20.05;;;10.52;;
37535;SDS011;23379;51.554;6.736;2022-07-01T06:02:09;17.40;;;10.63;;
37535;SDS011;23379;51.554;6.736;2022-07-01T06:04:35;16.38;;;10.40;;
37535;SDS011;23379;51.554;6.736;2022-07-01T06:07:00;16.75;;;9.82;;
37535;SDS011;23379;51.554;6.736;2022-07-01T06:09:26;17.65;;;9.88;;
37535;SDS011;23379;51.554;6.736;2022-07-01T06:11:51;15.80;;;9.80;;
37535;SDS011;23379;51.554;6.736;2022-07-01T06:14:16;15.80;;;9.20;;
37535;SDS011;23379;51.554;6.736;2022-07-01T06:16:42;14.20;;;9.20;;
37535;SDS011;23379;51.554;6.736;2022-07-01T06:19:07;13.18;;;8.98;;
37535;SDS011;23379;51.554;6.736;2022-07-01T06:21:32;13.82;;;8.77;;
37535;SDS011;23379;51.554;6.736;2022-07-01T06:23:58;10.70;;;8.65;;
37535;SDS011;23379;51.554;6.736;2022-07-01T06:26:23;15.90;;;9.20;;
37535;SDS011;23379;51.554;6.736;2022-07-01T06:28:49;15.45;;;8.60;;
37535;SDS011;23379;51.554;6.736;2022-07-01T06:31:15;15.27;;;9.10;;
37535;SDS011;23379;51.554;6.736;2022-07-01T06:33:40;16.52;;;8.93;;
37535;SDS011;23379;51.554;6.736;2022-07-01T06:36:05;13.10;;;9.10;;
37535;SDS011;23379;51.554;6.736;2022-07-01T06:38:31;18.23;;;9.30;;
37535;SDS011;23379;51.554;6.736;2022-07-01T06:40:56;13.55;;;7.97;;
37535;SDS011;23379;51.554;6.736;2022-07-01T06:43:41;10.93;;;8.45;;
37535;SDS011;23379;51.554;6.736;2022-07-01T06:46:08;15.68;;;8.23;;
37535;SDS011;23379;51.554;6.736;2022-07-01T06:48:33;11.00;;;7.13;;
37535;SDS011;23379;51.554;6.736;2022-07-01T06:51:00;11.90;;;8.38;;
37535;SDS011;23379;51.554;6.736;2022-07-01T06:53:26;16.50;;;8.02;;
37535;SDS011;23379;51.554;6.736;2022-07-01T06:55:51;12.88;;;6.93;;
37535;SDS011;23379;51.554;6.736;2022-07-01T06:58:17;11.23;;;7.20;;
37535;SDS011;23379;51.554;6.736;2022-07-01T07:00:42;9.45;;;6.80;;
37535;SDS011;23379;51.554;6.736;2022-07-01T07:03:07;9.80;;;6.82;;
37535;SDS011;23379;51.554;6.736;2022-07-01T07:05:33;9.38;;;6.47;;
37535;SDS011;23379;51.554;6.736;2022-07-01T07:07:58;9.73;;;6.32;;
37535;SDS011;23379;51.554;6.736;2022-07-01T07:10:24;8.05;;;6.13;;
37535;SDS011;23379;51.554;6.736;2022-07-01T07:12:49;11.43;;;7.30;;
37535;SDS011;23379;51.554;6.736;2022-07-01T07:15:15;9.80;;;6.78;;
37535;SDS011;23379;51.554;6.736;2022-07-01T07:17:40;12.05;;;7.20;;
37535;SDS011;23379;51.554;6.736;2022-07-01T07:20:06;10.85;;;6.95;;
37535;SDS011;23379;51.554;6.736;2022-07-01T07:22:32;11.30;;;6.65;;
37535;SDS011;23379;51.554;6.736;2022-07-01T07:24:57;9.63;;;5.97;;
37535;SDS011;23379;51.554;6.736;2022-07-01T07:27:23;11.57;;;6.45;;
37535;SDS011;23379;51.554;6.736;2022-07-01T07:29:48;11.50;;;6.38;;
37535;SDS011;23379;51.554;6.736;2022-07-01T07:32:14;12.77;;;6.18;;
37535;SDS011;23379;51.554;6.736;2022-07-01T07:34:39;9.32;;;5.93;;
37535;SDS011;23379;51.554;6.736;2022-07-01T07:37:04;8.50;;;5.65;;
37535;SDS011;23379;51.554;6.736;2022-07-01T07:39:30;8.63;;;5.70;;
37535;SDS011;23379;51.554;6.736;2022-07-01T07:41:56;10.65;;;6.20;;
37535;SDS011;23379;51.554;6.736;2022-07-01T07:44:21;7.93;;;5.45;;
37535;SDS011;23379;51.554;6.736;2022-07-01T07:46:46;8.30;;;5.95;;
37535;SDS011;23379;51.554;6.736;2022-07-01T07:49:12;10.55;;;5.57;;
37535;SDS011;23379;51.554;6.736;2022-07-01T07:51:37;11.43;;;5.70;;
37535;SDS011;23379;51.554;6.736;2022-07-01T07:54:02;8.40;;;5.32;;
37535;SDS011;23379;51.554;6.736;2022-07-01T07:56:28;9.82;;;5.13;;
37535;SDS011;23379;51.554;6.736;2022-07-01T07:58:55;8.20;;;4.82;;
37535;SDS011;23379;51.554;6.736;2022-07-01T08:01:20;8.45;;;4.93;;
37535;SDS011;23379;51.554;6.736;2022-07-01T08:03:45;8.20;;;4.53;;
37535;SDS011;23379;51.554;6.736;2022-07-01T08:06:11;11.23;;;5.07;;
37535;SDS011;23379;51.554;6.736;2022-07-01T08:08:37;7.65;;;5.10;;
37535;SDS011;23379;51.554;6.736;2022-07-01T08:11:02;9.45;;;4.90;;
37535;SDS011;23379;51.554;6.736;2022-07-01T08:13:28;7.70;;;4.57;;
37535;SDS011;23379;51.554;6.736;2022-07-01T08:15:54;6.00;;;5.10;;
37535;SDS011;23379;51.554;6.736;2022-07-01T08:18:19;6.55;;;4.65;;
37535;SDS011;23379;51.554;6.736;2022-07-01T08:20:45;6.30;;;3.55;;
37535;SDS011;23379;51.554;6.736;2022-07-01T08:23:11;8.13;;;3.67;;
37535;SDS011;23379;51.554;6.736;2022-07-01T08:25:37;5.07;;;3.40;;
37535;SDS011;23379;51.554;6.736;2022-07-01T08:28:03;6.60;;;3.50;;
37535;SDS011;23379;51.554;6.736;2022-07-01T08:30:28;8.18;;;3.20;;
37535;SDS011;23379;51.554;6.736;2022-07-01T08:32:54;4.00;;;2.90;;
37535;SDS011;23379;51.554;6.736;2022-07-01T08:35:19;8.07;;;3.00;;
37535;SDS011;23379;51.554;6.736;2022-07-01T08:37:45;5.32;;;2.67;;
37535;SDS011;23379;51.554;6.736;2022-07-01T08:40:10;8.48;;;2.75;;
37535;SDS011;23379;51.554;6.736;2022-07-01T08:42:36;6.72;;;2.10;;
37535;SDS011;23379;51.554;6.736;2022-07-01T08:45:01;2.45;;;1.92;;
37535;SDS011;23379;51.554;6.736;2022-07-01T08:47:26;7.35;;;1.95;;
37535;SDS011;23379;51.554;6.736;2022-07-01T08:49:52;3.88;;;1.77;;
37535;SDS011;23379;51.554;6.736;2022-07-01T08:52:17;3.97;;;1.90;;
37535;SDS011;23379;51.554;6.736;2022-07-01T08:54:43;4.50;;;1.55;;
37535;SDS011;23379;51.554;6.736;2022-07-01T08:57:08;4.75;;;1.42;;
37535;SDS011;23379;51.554;6.736;2022-07-01T08:59:34;3.50;;;1.17;;
37535;SDS011;23379;51.554;6.736;2022-07-01T09:02:00;4.32;;;1.70;;
37535;SDS011;23379;51.554;6.736;2022-07-01T09:04:28;5.10;;;1.50;;
37535;SDS011;23379;51.554;6.736;2022-07-01T09:07:08;4.65;;;1.38;;
37535;SDS011;23379;51.554;6.736;2022-07-01T09:09:37;4.13;;;1.17;;
37535;SDS011;23379;51.554;6.736;2022-07-01T09:12:04;5.10;;;1.40;;
37535;SDS011;23379;51.554;6.736;2022-07-01T09:14:30;7.82;;;1.42;;
37535;SDS011;23379;51.554;6.736;2022-07-01T09:16:58;3.25;;;1.83;;
37535;SDS011;23379;51.554;6.736;2022-07-01T09:19:25;3.67;;;1.33;;
37535;SDS011;23379;51.554;6.736;2022-07-01T09:21:56;5.57;;;1.30;;
37535;SDS011;23379;51.554;6.736;2022-07-01T09:27:00;5.13;;;1.20;;
37535;SDS011;23379;51.554;6.736;2022-07-01T09:29:32;2.92;;;1.15;;
37535;SDS011;23379;51.554;6.736;2022-07-01T09:32:00;3.28;;;1.00;;
37535;SDS011;23379;51.554;6.736;2022-07-01T09:34:31;5.35;;;1.05;;
37535;SDS011;23379;51.554;6.736;2022-07-01T09:37:01;3.50;;;0.93;;
37535;SDS011;23379;51.554;6.736;2022-07-01T09:39:26;4.35;;;0.80;;
37535;SDS011;23379;51.554;6.736;2022-07-01T09:41:56;2.50;;;0.70;;
37535;SDS011;23379;51.554;6.736;2022-07-01T09:44:22;2.63;;;0.80;;
37535;SDS011;23379;51.554;6.736;2022-07-01T09:46:51;3.28;;;0.90;;
37535;SDS011;23379;51.554;6.736;2022-07-01T09:49:20;3.25;;;0.88;;
37535;SDS011;23379;51.554;6.736;2022-07-01T09:51:46;4.88;;;0.85;;
37535;SDS011;23379;51.554;6.736;2022-07-01T09:54:14;4.05;;;0.80;;
37535;SDS011;23379;51.554;6.736;2022-07-01T09:56:40;3.20;;;0.80;;
37535;SDS011;23379;51.554;6.736;2022-07-01T09:59:05;4.82;;;1.10;;
37535;SDS011;23379;51.554;6.736;2022-07-01T10:01:31;3.83;;;0.80;;
37535;SDS011;23379;51.554;6.736;2022-07-01T10:03:57;3.13;;;0.88;;
37535;SDS011;23379;51.554;6.736;2022-07-01T10:06:41;2.80;;;0.70;;
37535;SDS011;23379;51.554;6.736;2022-07-01T10:14:44;3.08;;;0.98;;
37535;SDS011;23379;51.554;6.736;2022-07-01T10:17:09;3.80;;;0.90;;
37535;SDS011;23379;51.554;6.736;2022-07-01T10:19:54;3.55;;;1.00;;
37535;SDS011;23379;51.554;6.736;2022-07-01T10:22:24;3.80;;;0.80;;
37535;SDS011;23379;51.554;6.736;2022-07-01T10:24:50;3.38;;;0.98;;
37535;SDS011;23379;51.554;6.736;2022-07-01T10:27:19;4.68;;;1.08;;
37535;SDS011;23379;51.554;6.736;2022-07-01T10:29:47;4.57;;;0.95;;
37535;SDS011;23379;51.554;6.736;2022-07-01T10:34:46;2.85;;;0.93;;
37535;SDS011;23379;51.554;6.736;2022-07-01T10:37:12;8.90;;;1.00;;
37535;SDS011;23379;51.554;6.736;2022-07-01T10:42:19;5.67;;;0.97;;
37535;SDS011;23379;51.554;6.736;2022-07-01T10:47:28;5.05;;;0.90;;
37535;SDS011;23379;51.554;6.736;2022-07-01T10:49:54;5.15;;;1.00;;
37535;SDS011;23379;51.554;6.736;2022-07-01T10:52:22;3.95;;;0.80;;
37535;SDS011;23379;51.554;6.736;2022-07-01T10:54:50;2.95;;;0.88;;
37535;SDS011;23379;51.554;6.736;2022-07-01T10:59:44;4.07;;;0.70;;
37535;SDS011;23379;51.554;6.736;2022-07-01T11:04:43;5.10;;;1.02;;
37535;SDS011;23379;51.554;6.736;2022-07-01T11:07:09;5.30;;;0.98;;
37535;SDS011;23379;51.554;6.736;2022-07-01T11:09:35;4.90;;;1.05;;
37535;SDS011;23379;51.554;6.736;2022-07-01T11:12:01;2.47;;;0.85;;
37535;SDS011;23379;51.554;6.736;2022-07-01T11:14:27;5.38;;;1.13;;
37535;SDS011;23379;51.554;6.736;2022-07-01T11:16:53;2.50;;;0.80;;
37535;SDS011;23379;51.554;6.736;2022-07-01T11:19:20;4.63;;;1.10;;
37535;SDS011;23379;51.554;6.736;2022-07-01T11:21:48;3.83;;;0.90;;
37535;SDS011;23379;51.554;6.736;2022-07-01T11:24:16;4.05;;;0.80;;
37535;SDS011;23379;51.554;6.736;2022-07-01T11:26:42;2.15;;;0.70;;
37535;SDS011;23379;51.554;6.736;2022-07-01T11:29:11;4.90;;;0.95;;
37535;SDS011;23379;51.554;6.736;2022-07-01T11:31:37;3.65;;;0.85;;
37535;SDS011;23379;51.554;6.736;2022-07-01T11:34:02;4.05;;;0.70;;
37535;SDS011;23379;51.554;6.736;2022-07-01T11:36:28;5.85;;;1.20;;
37535;SDS011;23379;51.554;6.736;2022-07-01T11:39:12;2.67;;;0.75;;
37535;SDS011;23379;51.554;6.736;2022-07-01T11:41:47;3.67;;;0.82;;
37535;SDS011;23379;51.554;6.736;2022-07-01T11:44:12;6.13;;;0.75;;
37535;SDS011;23379;51.554;6.736;2022-07-01T11:46:38;4.03;;;0.45;;
37535;SDS011;23379;51.554;6.736;2022-07-01T11:49:10;3.90;;;0.70;;
37535;SDS011;23379;51.554;6.736;2022-07-01T11:51:37;3.03;;;0.73;;
37535;SDS011;23379;51.554;6.736;2022-07-01T11:54:02;3.25;;;0.60;;
37535;SDS011;23379;51.554;6.736;2022-07-01T11:56:29;2.58;;;0.73;;
37535;SDS011;23379;51.554;6.736;2022-07-01T11:58:55;2.47;;;0.47;;
37535;SDS011;23379;51.554;6.736;2022-07-01T12:01:21;2.90;;;0.60;;
37535;SDS011;23379;51.554;6.736;2022-07-01T12:03:48;5.28;;;0.70;;
37535;SDS011;23379;51.554;6.736;2022-07-01T12:06:14;1.73;;;0.43;;
37535;SDS011;23379;51.554;6.736;2022-07-01T12:08:42;6.35;;;0.68;;
37535;SDS011;23379;51.554;6.736;2022-07-01T12:11:09;2.90;;;0.60;;
37535;SDS011;23379;51.554;6.736;2022-07-01T12:13:35;2.20;;;0.20;;
37535;SDS011;23379;51.554;6.736;2022-07-01T12:16:11;4.28;;;0.57;;
37535;SDS011;23379;51.554;6.736;2022-07-01T12:18:37;3.60;;;0.30;;
37535;SDS011;23379;51.554;6.736;2022-07-01T12:21:03;2.22;;;0.52;;
37535;SDS011;23379;51.554;6.736;2022-07-01T12:23:34;2.50;;;0.60;;
37535;SDS011;23379;51.554;6.736;2022-07-01T12:26:03;6.57;;;0.80;;
37535;SDS011;23379;51.554;6.736;2022-07-01T12:28:33;1.42;;;0.30;;
37535;SDS011;23379;51.554;6.736;2022-07-01T12:31:04;1.77;;;0.40;;
37535;SDS011;23379;51.554;6.736;2022-07-01T12:33:34;1.20;;;0.40;;
37535;SDS011;23379;51.554;6.736;2022-07-01T12:36:04;2.08;;;0.60;;
37535;SDS011;23379;51.554;6.736;2022-07-01T12:38:31;2.92;;;0.40;;
37535;SDS011;23379;51.554;6.736;2022-07-01T12:40:58;1.98;;;0.45;;
37535;SDS011;23379;51.554;6.736;2022-07-01T12:43:30;1.50;;;0.20;;
37535;SDS011;23379;51.554;6.736;2022-07-01T12:46:03;3.40;;;0.38;;
37535;SDS011;23379;51.554;6.736;2022-07-01T12:48:28;1.42;;;0.30;;
37535;SDS011;23379;51.554;6.736;2022-07-01T12:50:57;1.63;;;0.28;;
37535;SDS011;23379;51.554;6.736;2022-07-01T12:53:23;2.53;;;0.30;;
37535;SDS011;23379;51.554;6.736;2022-07-01T12:55:51;4.35;;;0.50;;
37535;SDS011;23379;51.554;6.736;2022-07-01T12:58:22;2.55;;;0.25;;
37535;SDS011;23379;51.554;6.736;2022-07-01T13:00:53;3.47;;;0.40;;
37535;SDS011;23379;51.554;6.736;2022-07-01T13:03:21;2.15;;;0.40;;
37535;SDS011;23379;51.554;6.736;2022-07-01T13:05:47;1.23;;;0.30;;
37535;SDS011;23379;51.554;6.736;2022-07-01T13:08:13;1.33;;;0.40;;
37535;SDS011;23379;51.554;6.736;2022-07-01T13:10:38;2.15;;;0.47;;
37535;SDS011;23379;51.554;6.736;2022-07-01T13:13:05;1.92;;;0.40;;
37535;SDS011;23379;51.554;6.736;2022-07-01T13:15:30;2.28;;;0.32;;
37535;SDS011;23379;51.554;6.736;2022-07-01T13:17:56;2.10;;;0.50;;
37535;SDS011;23379;51.554;6.736;2022-07-01T13:20:21;3.50;;;0.60;;
37535;SDS011;23379;51.554;6.736;2022-07-01T13:22:47;5.20;;;0.52;;
37535;SDS011;23379;51.554;6.736;2022-07-01T13:25:13;3.40;;;0.40;;
37535;SDS011;23379;51.554;6.736;2022-07-01T13:27:39;4.60;;;0.40;;
37535;SDS011;23379;51.554;6.736;2022-07-01T13:30:06;2.03;;;0.30;;
37535;SDS011;23379;51.554;6.736;2022-07-01T13:32:33;1.67;;;0.32;;
37535;SDS011;23379;51.554;6.736;2022-07-01T13:34:59;5.85;;;0.57;;
37535;SDS011;23379;51.554;6.736;2022-07-01T13:37:25;2.83;;;0.40;;
37535;SDS011;23379;51.554;6.736;2022-07-01T13:39:50;3.70;;;0.55;;
37535;SDS011;23379;51.554;6.736;2022-07-01T13:42:16;1.98;;;0.68;;
37535;SDS011;23379;51.554;6.736;2022-07-01T13:44:41;3.13;;;0.73;;
37535;SDS011;23379;51.554;6.736;2022-07-01T13:47:07;1.58;;;0.30;;
37535;SDS011;23379;51.554;6.736;2022-07-01T13:49:34;1.20;;;0.38;;
37535;SDS011;23379;51.554;6.736;2022-07-01T13:52:04;2.42;;;0.50;;
37535;SDS011;23379;51.554;6.736;2022-07-01T13:54:29;3.03;;;0.52;;
37535;SDS011;23379;51.554;6.736;2022-07-01T13:56:55;4.63;;;0.73;;
37535;SDS011;23379;51.554;6.736;2022-07-01T13:59:20;2.88;;;0.65;;
37535;SDS011;23379;51.554;6.736;2022-07-01T14:01:45;2.78;;;0.60;;
37535;SDS011;23379;51.554;6.736;2022-07-01T14:04:11;3.30;;;0.50;;
37535;SDS011;23379;51.554;6.736;2022-07-01T14:06:38;2.28;;;0.52;;
37535;SDS011;23379;51.554;6.736;2022-07-01T14:09:03;1.25;;;0.50;;
37535;SDS011;23379;51.554;6.736;2022-07-01T14:11:28;4.65;;;0.60;;
37535;SDS011;23379;51.554;6.736;2022-07-01T14:13:54;4.10;;;0.63;;
37535;SDS011;23379;51.554;6.736;2022-07-01T14:16:19;3.78;;;0.65;;
37535;SDS011;23379;51.554;6.736;2022-07-01T14:18:45;2.65;;;0.77;;
37535;SDS011;23379;51.554;6.736;2022-07-01T14:21:11;5.18;;;0.88;;
37535;SDS011;23379;51.554;6.736;2022-07-01T14:23:36;3.10;;;0.70;;
37535;SDS011;23379;51.554;6.736;2022-07-01T14:26:02;3.38;;;0.68;;
37535;SDS011;23379;51.554;6.736;2022-07-01T14:28:28;2.40;;;0.57;;
37535;SDS011;23379;51.554;6.736;2022-07-01T14:30:53;2.85;;;0.50;;
37535;SDS011;23379;51.554;6.736;2022-07-01T14:33:19;3.55;;;0.60;;
37535;SDS011;23379;51.554;6.736;2022-07-01T14:35:45;3.95;;;0.68;;
37535;SDS011;23379;51.554;6.736;2022-07-01T14:38:11;6.40;;;0.90;;
37535;SDS011;23379;51.554;6.736;2022-07-01T14:40:38;2.08;;;0.68;;
37535;SDS011;23379;51.554;6.736;2022-07-01T14:43:04;2.40;;;0.70;;
37535;SDS011;23379;51.554;6.736;2022-07-01T14:45:29;3.00;;;0.75;;
37535;SDS011;23379;51.554;6.736;2022-07-01T14:47:55;3.90;;;0.75;;
37535;SDS011;23379;51.554;6.736;2022-07-01T14:50:20;4.53;;;0.65;;
37535;SDS011;23379;51.554;6.736;2022-07-01T14:52:46;3.05;;;1.00;;
37535;SDS011;23379;51.554;6.736;2022-07-01T14:55:12;3.78;;;0.70;;
37535;SDS011;23379;51.554;6.736;2022-07-01T14:57:37;2.00;;;0.52;;